sensor_id;sensor_type;location;lat;lon;timestamp;P1;durP1;ratioP1;P2;durP2;ratioP2
15096;SDS011;7649;52.084;7.478;2023-02-11T00:01:20;48.73;;;32.10;;
15096;SDS011;7649;52.084;7.478;2023-02-11T00:03:48;51.07;;;31.30;;
15096;SDS011;7649;52.084;7.478;2023-02-11T00:06:17;48.50;;;32.03;;
15096;SDS011;7649;52.084;7.478;2023-02-11T00:08:45;44.67;;;31.90;;
15096;SDS011;7649;52.084;7.478;2023-02-11T00:11:15;49.97;;;33.30;;
15096;SDS011;7649;52.084;7.478;2023-02-11T00:13:44;53.63;;;33.00;;
15096;SDS011;7649;52.084;7.478;2023-02-11T00:16:13;50.30;;;32.67;;
15096;SDS011;7649;52.084;7.478;2023-02-11T00:18:42;44.20;;;30.23;;
15096;SDS011;7649;52.084;7.478;2023-02-11T00:21:11;45.23;;;30.53;;
15096;SDS011;7649;52.084;7.478;2023-02-11T00:23:40;52.40;;;31.10;;
15096;SDS011;7649;52.084;7.478;2023-02-11T00:26:10;44.90;;;30.10;;
15096;SDS011;7649;52.084;7.478;2023-02-11T00:28:40;49.10;;;31.27;;
15096;SDS011;7649;52.084;7.478;2023-02-11T00:31:08;46.97;;;29.67;;
15096;SDS011;7649;52.084;7.478;2023-02-11T00:33:37;50.07;;;31.90;;
15096;SDS011;7649;52.084;7.478;2023-02-11T00:36:06;47.97;;;30.67;;
15096;SDS011;7649;52.084;7.478;2023-02-11T00:38:35;45.33;;;28.90;;
15096;SDS011;7649;52.084;7.478;2023-02-11T00:41:03;44.97;;;29.23;;
15096;SDS011;7649;52.084;7.478;2023-02-11T00:43:32;44.43;;;29.93;;
15096;SDS011;7649;52.084;7.478;2023-02-11T00:46:01;47.53;;;30.07;;
15096;SDS011;7649;52.084;7.478;2023-02-11T00:48:30;45.43;;;29.27;;
15096;SDS011;7649;52.084;7.478;2023-02-11T00:50:58;44.50;;;29.87;;
15096;SDS011;7649;52.084;7.478;2023-02-11T00:53:26;47.37;;;28.53;;
15096;SDS011;7649;52.084;7.478;2023-02-11T00:55:55;41.27;;;28.83;;
15096;SDS011;7649;52.084;7.478;2023-02-11T00:58:23;45.10;;;28.67;;
15096;SDS011;7649;52.084;7.478;2023-02-11T01:00:52;47.77;;;28.77;;
15096;SDS011;7649;52.084;7.478;2023-02-11T01:03:21;44.67;;;27.97;;
15096;SDS011;7649;52.084;7.478;2023-02-11T01:05:50;42.03;;;27.63;;
15096;SDS011;7649;52.084;7.478;2023-02-11T01:08:18;42.20;;;27.30;;
15096;SDS011;7649;52.084;7.478;2023-02-11T01:10:52;45.07;;;28.70;;
15096;SDS011;7649;52.084;7.478;2023-02-11T01:13:20;41.87;;;27.27;;
15096;SDS011;7649;52.084;7.478;2023-02-11T01:15:49;43.27;;;27.30;;
15096;SDS011;7649;52.084;7.478;2023-02-11T01:18:18;43.40;;;27.43;;
15096;SDS011;7649;52.084;7.478;2023-02-11T01:20:47;42.17;;;27.37;;
15096;SDS011;7649;52.084;7.478;2023-02-11T01:23:16;38.60;;;26.13;;
15096;SDS011;7649;52.084;7.478;2023-02-11T01:25:44;37.77;;;26.37;;
15096;SDS011;7649;52.084;7.478;2023-02-11T01:28:15;39.63;;;26.37;;
15096;SDS011;7649;52.084;7.478;2023-02-11T01:30:43;40.37;;;26.40;;
15096;SDS011;7649;52.084;7.478;2023-02-11T01:33:12;43.67;;;25.90;;
15096;SDS011;7649;52.084;7.478;2023-02-11T01:35:40;39.57;;;25.23;;
15096;SDS011;7649;52.084;7.478;2023-02-11T01:38:12;37.57;;;23.67;;
15096;SDS011;7649;52.084;7.478;2023-02-11T01:40:45;36.77;;;24.07;;
15096;SDS011;7649;52.084;7.478;2023-02-11T01:43:13;37.17;;;23.43;;
15096;SDS011;7649;52.084;7.478;2023-02-11T01:45:59;34.40;;;24.03;;
15096;SDS011;7649;52.084;7.478;2023-02-11T01:48:28;35.73;;;22.80;;
15096;SDS011;7649;52.084;7.478;2023-02-11T01:50:58;41.10;;;24.20;;
15096;SDS011;7649;52.084;7.478;2023-02-11T01:53:29;33.67;;;23.43;;
15096;SDS011;7649;52.084;7.478;2023-02-11T01:56:16;35.07;;;22.73;;
15096;SDS011;7649;52.084;7.478;2023-02-11T01:59:04;32.83;;;22.10;;
15096;SDS011;7649;52.084;7.478;2023-02-11T02:01:34;33.33;;;21.90;;
15096;SDS011;7649;52.084;7.478;2023-02-11T02:04:04;30.20;;;23.17;;
15096;SDS011;7649;52.084;7.478;2023-02-11T02:06:34;30.67;;;21.53;;
15096;SDS011;7649;52.084;7.478;2023-02-11T02:09:06;32.37;;;21.77;;
15096;SDS011;7649;52.084;7.478;2023-02-11T02:11:36;27.90;;;20.37;;
15096;SDS011;7649;52.084;7.478;2023-02-11T02:14:04;32.37;;;20.73;;
15096;SDS011;7649;52.084;7.478;2023-02-11T02:16:33;32.70;;;22.03;;
15096;SDS011;7649;52.084;7.478;2023-02-11T02:19:12;30.90;;;21.03;;
15096;SDS011;7649;52.084;7.478;2023-02-11T02:21:50;33.23;;;20.67;;
15096;SDS011;7649;52.084;7.478;2023-02-11T02:24:34;28.27;;;19.23;;
15096;SDS011;7649;52.084;7.478;2023-02-11T02:27:17;31.73;;;19.77;;
15096;SDS011;7649;52.084;7.478;2023-02-11T02:32:51;32.23;;;19.23;;
15096;SDS011;7649;52.084;7.478;2023-02-11T02:35:37;29.17;;;19.20;;
15096;SDS011;7649;52.084;7.478;2023-02-11T02:38:09;32.37;;;20.13;;
15096;SDS011;7649;52.084;7.478;2023-02-11T02:40:40;30.27;;;18.77;;
15096;SDS011;7649;52.084;7.478;2023-02-11T02:43:10;30.20;;;19.50;;
15096;SDS011;7649;52.084;7.478;2023-02-11T02:45:38;30.27;;;19.43;;
15096;SDS011;7649;52.084;7.478;2023-02-11T02:48:21;30.90;;;19.07;;
15096;SDS011;7649;52.084;7.478;2023-02-11T02:50:50;27.80;;;19.00;;
15096;SDS011;7649;52.084;7.478;2023-02-11T02:53:23;27.00;;;17.70;;
15096;SDS011;7649;52.084;7.478;2023-02-11T02:55:57;29.37;;;18.43;;
15096;SDS011;7649;52.084;7.478;2023-02-11T02:58:35;24.53;;;18.30;;
15096;SDS011;7649;52.084;7.478;2023-02-11T03:01:13;33.77;;;19.63;;
15096;SDS011;7649;52.084;7.478;2023-02-11T03:03:47;32.07;;;18.30;;
15096;SDS011;7649;52.084;7.478;2023-02-11T03:06:17;30.20;;;19.67;;
15096;SDS011;7649;52.084;7.478;2023-02-11T03:08:50;29.50;;;17.90;;
15096;SDS011;7649;52.084;7.478;2023-02-11T03:11:20;29.30;;;18.00;;
15096;SDS011;7649;52.084;7.478;2023-02-11T03:13:49;31.07;;;18.73;;
15096;SDS011;7649;52.084;7.478;2023-02-11T03:16:18;24.93;;;18.00;;
15096;SDS011;7649;52.084;7.478;2023-02-11T03:18:50;25.90;;;18.00;;
15096;SDS011;7649;52.084;7.478;2023-02-11T03:21:20;28.60;;;18.83;;
15096;SDS011;7649;52.084;7.478;2023-02-11T03:23:50;29.00;;;18.80;;
15096;SDS011;7649;52.084;7.478;2023-02-11T03:26:21;26.07;;;17.83;;
15096;SDS011;7649;52.084;7.478;2023-02-11T03:28:51;31.50;;;18.93;;
15096;SDS011;7649;52.084;7.478;2023-02-11T03:31:25;26.67;;;17.30;;
15096;SDS011;7649;52.084;7.478;2023-02-11T03:33:58;30.30;;;18.77;;
15096;SDS011;7649;52.084;7.478;2023-02-11T03:36:35;27.87;;;18.90;;
15096;SDS011;7649;52.084;7.478;2023-02-11T03:39:06;25.77;;;18.13;;
15096;SDS011;7649;52.084;7.478;2023-02-11T03:41:35;27.47;;;17.90;;
15096;SDS011;7649;52.084;7.478;2023-02-11T03:44:04;29.17;;;18.93;;
15096;SDS011;7649;52.084;7.478;2023-02-11T03:46:35;27.13;;;17.87;;
15096;SDS011;7649;52.084;7.478;2023-02-11T03:49:07;25.67;;;16.87;;
15096;SDS011;7649;52.084;7.478;2023-02-11T03:51:36;26.53;;;18.70;;
15096;SDS011;7649;52.084;7.478;2023-02-11T03:54:06;27.50;;;17.27;;
15096;SDS011;7649;52.084;7.478;2023-02-11T03:56:37;33.33;;;17.83;;
15096;SDS011;7649;52.084;7.478;2023-02-11T03:59:06;25.80;;;17.80;;
15096;SDS011;7649;52.084;7.478;2023-02-11T04:01:34;27.67;;;18.00;;
15096;SDS011;7649;52.084;7.478;2023-02-11T04:04:03;29.27;;;18.17;;
15096;SDS011;7649;52.084;7.478;2023-02-11T04:06:32;29.13;;;17.50;;
15096;SDS011;7649;52.084;7.478;2023-02-11T04:09:01;31.67;;;17.57;;
15096;SDS011;7649;52.084;7.478;2023-02-11T04:11:29;33.27;;;18.23;;
15096;SDS011;7649;52.084;7.478;2023-02-11T04:13:58;31.27;;;17.97;;
15096;SDS011;7649;52.084;7.478;2023-02-11T04:16:26;26.30;;;18.63;;
15096;SDS011;7649;52.084;7.478;2023-02-11T04:18:56;28.20;;;18.07;;
15096;SDS011;7649;52.084;7.478;2023-02-11T04:21:24;28.80;;;17.77;;
15096;SDS011;7649;52.084;7.478;2023-02-11T04:23:53;30.30;;;18.07;;
15096;SDS011;7649;52.084;7.478;2023-02-11T04:26:22;28.27;;;18.17;;
15096;SDS011;7649;52.084;7.478;2023-02-11T04:28:50;28.97;;;17.77;;
15096;SDS011;7649;52.084;7.478;2023-02-11T04:31:18;29.60;;;17.90;;
15096;SDS011;7649;52.084;7.478;2023-02-11T04:33:47;25.10;;;17.90;;
15096;SDS011;7649;52.084;7.478;2023-02-11T04:36:15;27.83;;;17.20;;
15096;SDS011;7649;52.084;7.478;2023-02-11T04:38:43;27.73;;;17.77;;
15096;SDS011;7649;52.084;7.478;2023-02-11T04:41:13;30.10;;;17.93;;
15096;SDS011;7649;52.084;7.478;2023-02-11T04:43:41;33.60;;;18.27;;
15096;SDS011;7649;52.084;7.478;2023-02-11T04:46:09;31.13;;;17.70;;
15096;SDS011;7649;52.084;7.478;2023-02-11T04:48:37;29.00;;;17.67;;
15096;SDS011;7649;52.084;7.478;2023-02-11T04:51:06;26.23;;;18.50;;
15096;SDS011;7649;52.084;7.478;2023-02-11T04:53:34;26.47;;;16.60;;
15096;SDS011;7649;52.084;7.478;2023-02-11T04:56:02;31.90;;;17.23;;
15096;SDS011;7649;52.084;7.478;2023-02-11T04:58:32;24.93;;;17.27;;
15096;SDS011;7649;52.084;7.478;2023-02-11T05:01:04;26.90;;;16.37;;
15096;SDS011;7649;52.084;7.478;2023-02-11T05:03:32;26.97;;;16.00;;
15096;SDS011;7649;52.084;7.478;2023-02-11T05:06:01;25.93;;;15.93;;
15096;SDS011;7649;52.084;7.478;2023-02-11T05:08:29;29.17;;;17.20;;
15096;SDS011;7649;52.084;7.478;2023-02-11T05:10:58;25.63;;;15.93;;
15096;SDS011;7649;52.084;7.478;2023-02-11T05:13:27;29.13;;;17.07;;
15096;SDS011;7649;52.084;7.478;2023-02-11T05:15:57;23.27;;;16.60;;
15096;SDS011;7649;52.084;7.478;2023-02-11T05:18:25;26.00;;;16.43;;
15096;SDS011;7649;52.084;7.478;2023-02-11T05:20:53;29.73;;;16.70;;
15096;SDS011;7649;52.084;7.478;2023-02-11T05:23:22;31.93;;;17.63;;
15096;SDS011;7649;52.084;7.478;2023-02-11T05:25:50;26.80;;;17.20;;
15096;SDS011;7649;52.084;7.478;2023-02-11T05:28:18;23.80;;;16.77;;
15096;SDS011;7649;52.084;7.478;2023-02-11T05:30:46;25.33;;;15.83;;
15096;SDS011;7649;52.084;7.478;2023-02-11T05:33:16;26.17;;;17.43;;
15096;SDS011;7649;52.084;7.478;2023-02-11T05:35:45;29.90;;;16.87;;
15096;SDS011;7649;52.084;7.478;2023-02-11T05:38:13;26.00;;;16.37;;
15096;SDS011;7649;52.084;7.478;2023-02-11T05:40:41;26.33;;;16.70;;
15096;SDS011;7649;52.084;7.478;2023-02-11T05:43:10;29.70;;;17.87;;
15096;SDS011;7649;52.084;7.478;2023-02-11T05:45:38;25.83;;;17.40;;
15096;SDS011;7649;52.084;7.478;2023-02-11T05:48:06;29.47;;;18.20;;
15096;SDS011;7649;52.084;7.478;2023-02-11T05:50:36;29.97;;;17.77;;
15096;SDS011;7649;52.084;7.478;2023-02-11T05:53:04;29.33;;;18.53;;
15096;SDS011;7649;52.084;7.478;2023-02-11T05:55:33;31.03;;;19.47;;
15096;SDS011;7649;52.084;7.478;2023-02-11T05:58:01;29.87;;;19.43;;
15096;SDS011;7649;52.084;7.478;2023-02-11T06:00:30;29.87;;;19.63;;
15096;SDS011;7649;52.084;7.478;2023-02-11T06:02:58;31.27;;;19.43;;
15096;SDS011;7649;52.084;7.478;2023-02-11T06:05:26;35.77;;;19.80;;
15096;SDS011;7649;52.084;7.478;2023-02-11T06:07:56;27.67;;;17.80;;
15096;SDS011;7649;52.084;7.478;2023-02-11T06:10:25;29.37;;;19.47;;
15096;SDS011;7649;52.084;7.478;2023-02-11T06:12:53;29.40;;;19.50;;
15096;SDS011;7649;52.084;7.478;2023-02-11T06:15:22;30.93;;;19.73;;
15096;SDS011;7649;52.084;7.478;2023-02-11T06:17:50;30.07;;;18.50;;
15096;SDS011;7649;52.084;7.478;2023-02-11T06:20:18;29.80;;;20.70;;
15096;SDS011;7649;52.084;7.478;2023-02-11T06:22:47;32.40;;;19.40;;
15096;SDS011;7649;52.084;7.478;2023-02-11T06:25:16;33.13;;;20.83;;
15096;SDS011;7649;52.084;7.478;2023-02-11T06:27:45;36.20;;;21.33;;
15096;SDS011;7649;52.084;7.478;2023-02-11T06:30:13;32.53;;;20.20;;
15096;SDS011;7649;52.084;7.478;2023-02-11T06:32:41;30.17;;;20.67;;
15096;SDS011;7649;52.084;7.478;2023-02-11T06:35:11;33.70;;;21.47;;
15096;SDS011;7649;52.084;7.478;2023-02-11T06:37:40;31.90;;;20.80;;
15096;SDS011;7649;52.084;7.478;2023-02-11T06:40:09;34.20;;;21.73;;
15096;SDS011;7649;52.084;7.478;2023-02-11T06:42:39;40.50;;;22.40;;
15096;SDS011;7649;52.084;7.478;2023-02-11T06:45:07;32.80;;;21.93;;
15096;SDS011;7649;52.084;7.478;2023-02-11T06:47:36;34.57;;;22.07;;
15096;SDS011;7649;52.084;7.478;2023-02-11T06:50:05;35.07;;;22.23;;
15096;SDS011;7649;52.084;7.478;2023-02-11T06:52:34;34.20;;;24.23;;
15096;SDS011;7649;52.084;7.478;2023-02-11T06:55:02;42.30;;;25.87;;
15096;SDS011;7649;52.084;7.478;2023-02-11T06:57:31;41.40;;;24.43;;
15096;SDS011;7649;52.084;7.478;2023-02-11T07:00:00;41.53;;;23.87;;
15096;SDS011;7649;52.084;7.478;2023-02-11T07:02:31;37.50;;;23.67;;
15096;SDS011;7649;52.084;7.478;2023-02-11T07:04:59;36.77;;;24.13;;
15096;SDS011;7649;52.084;7.478;2023-02-11T07:07:27;36.33;;;23.57;;
15096;SDS011;7649;52.084;7.478;2023-02-11T07:09:59;38.53;;;23.80;;
15096;SDS011;7649;52.084;7.478;2023-02-11T07:12:29;39.00;;;23.63;;
15096;SDS011;7649;52.084;7.478;2023-02-11T07:14:57;40.20;;;24.63;;
15096;SDS011;7649;52.084;7.478;2023-02-11T07:17:27;40.73;;;24.50;;
15096;SDS011;7649;52.084;7.478;2023-02-11T07:19:55;42.20;;;25.73;;
15096;SDS011;7649;52.084;7.478;2023-02-11T07:22:23;40.27;;;25.50;;
15096;SDS011;7649;52.084;7.478;2023-02-11T07:24:51;40.17;;;25.53;;
15096;SDS011;7649;52.084;7.478;2023-02-11T07:27:20;50.50;;;26.80;;
15096;SDS011;7649;52.084;7.478;2023-02-11T07:29:48;43.93;;;27.20;;
15096;SDS011;7649;52.084;7.478;2023-02-11T07:32:16;50.23;;;27.37;;
15096;SDS011;7649;52.084;7.478;2023-02-11T07:34:46;49.33;;;25.80;;
15096;SDS011;7649;52.084;7.478;2023-02-11T07:37:14;43.40;;;26.10;;
15096;SDS011;7649;52.084;7.478;2023-02-11T07:39:43;45.90;;;26.07;;
15096;SDS011;7649;52.084;7.478;2023-02-11T07:42:11;43.53;;;27.07;;
15096;SDS011;7649;52.084;7.478;2023-02-11T07:44:39;47.17;;;27.43;;
15096;SDS011;7649;52.084;7.478;2023-02-11T07:47:07;44.97;;;27.07;;
15096;SDS011;7649;52.084;7.478;2023-02-11T07:49:36;40.93;;;26.73;;
15096;SDS011;7649;52.084;7.478;2023-02-11T07:52:05;44.73;;;27.47;;
15096;SDS011;7649;52.084;7.478;2023-02-11T07:54:34;53.60;;;27.67;;
15096;SDS011;7649;52.084;7.478;2023-02-11T07:57:02;45.90;;;27.63;;
15096;SDS011;7649;52.084;7.478;2023-02-11T07:59:30;47.33;;;27.60;;
15096;SDS011;7649;52.084;7.478;2023-02-11T08:01:59;51.93;;;28.13;;
15096;SDS011;7649;52.084;7.478;2023-02-11T08:04:27;48.83;;;27.87;;
15096;SDS011;7649;52.084;7.478;2023-02-11T08:06:55;49.67;;;28.00;;
15096;SDS011;7649;52.084;7.478;2023-02-11T08:09:25;47.50;;;29.13;;
15096;SDS011;7649;52.084;7.478;2023-02-11T08:11:54;47.60;;;28.80;;
15096;SDS011;7649;52.084;7.478;2023-02-11T08:14:22;46.93;;;28.27;;
15096;SDS011;7649;52.084;7.478;2023-02-11T08:16:52;45.40;;;28.47;;
15096;SDS011;7649;52.084;7.478;2023-02-11T08:19:20;45.67;;;28.27;;
15096;SDS011;7649;52.084;7.478;2023-02-11T08:21:49;45.70;;;28.13;;
15096;SDS011;7649;52.084;7.478;2023-02-11T08:24:17;47.67;;;28.20;;
15096;SDS011;7649;52.084;7.478;2023-02-11T08:26:47;42.67;;;27.93;;
15096;SDS011;7649;52.084;7.478;2023-02-11T08:29:15;49.93;;;29.07;;
15096;SDS011;7649;52.084;7.478;2023-02-11T08:31:45;53.53;;;29.27;;
15096;SDS011;7649;52.084;7.478;2023-02-11T08:34:14;49.80;;;28.87;;
15096;SDS011;7649;52.084;7.478;2023-02-11T08:36:45;49.87;;;29.13;;
15096;SDS011;7649;52.084;7.478;2023-02-11T08:39:14;46.77;;;29.87;;
15096;SDS011;7649;52.084;7.478;2023-02-11T08:41:47;44.60;;;27.77;;
15096;SDS011;7649;52.084;7.478;2023-02-11T08:44:16;48.87;;;28.20;;
15096;SDS011;7649;52.084;7.478;2023-02-11T08:46:44;49.23;;;28.17;;
15096;SDS011;7649;52.084;7.478;2023-02-11T08:49:13;50.70;;;29.70;;
15096;SDS011;7649;52.084;7.478;2023-02-11T08:51:41;48.77;;;29.57;;
15096;SDS011;7649;52.084;7.478;2023-02-11T08:54:10;48.53;;;28.73;;
15096;SDS011;7649;52.084;7.478;2023-02-11T08:56:39;49.80;;;29.17;;
15096;SDS011;7649;52.084;7.478;2023-02-11T08:59:10;44.57;;;28.17;;
15096;SDS011;7649;52.084;7.478;2023-02-11T09:01:39;48.97;;;29.00;;
15096;SDS011;7649;52.084;7.478;2023-02-11T09:04:09;47.57;;;28.20;;
15096;SDS011;7649;52.084;7.478;2023-02-11T09:06:38;51.27;;;29.27;;
15096;SDS011;7649;52.084;7.478;2023-02-11T09:09:08;47.87;;;29.17;;
15096;SDS011;7649;52.084;7.478;2023-02-11T09:11:37;51.73;;;28.50;;
15096;SDS011;7649;52.084;7.478;2023-02-11T09:14:06;43.53;;;28.70;;
15096;SDS011;7649;52.084;7.478;2023-02-11T09:16:36;48.17;;;28.50;;
15096;SDS011;7649;52.084;7.478;2023-02-11T09:19:04;45.73;;;29.00;;
15096;SDS011;7649;52.084;7.478;2023-02-11T09:21:32;55.23;;;29.77;;
15096;SDS011;7649;52.084;7.478;2023-02-11T09:24:01;46.13;;;28.33;;
15096;SDS011;7649;52.084;7.478;2023-02-11T09:26:30;51.87;;;30.63;;
15096;SDS011;7649;52.084;7.478;2023-02-11T09:28:58;46.20;;;27.83;;
15096;SDS011;7649;52.084;7.478;2023-02-11T09:31:28;50.97;;;29.77;;
15096;SDS011;7649;52.084;7.478;2023-02-11T09:33:59;48.67;;;28.23;;
15096;SDS011;7649;52.084;7.478;2023-02-11T09:36:28;47.87;;;29.00;;
15096;SDS011;7649;52.084;7.478;2023-02-11T09:38:57;51.93;;;28.50;;
15096;SDS011;7649;52.084;7.478;2023-02-11T09:41:31;49.03;;;29.10;;
15096;SDS011;7649;52.084;7.478;2023-02-11T09:44:01;46.83;;;27.50;;
15096;SDS011;7649;52.084;7.478;2023-02-11T09:46:31;48.33;;;27.40;;
15096;SDS011;7649;52.084;7.478;2023-02-11T09:49:02;46.97;;;28.37;;
15096;SDS011;7649;52.084;7.478;2023-02-11T09:51:34;42.87;;;27.63;;
15096;SDS011;7649;52.084;7.478;2023-02-11T09:54:04;50.00;;;29.53;;
15096;SDS011;7649;52.084;7.478;2023-02-11T09:56:34;50.57;;;27.93;;
15096;SDS011;7649;52.084;7.478;2023-02-11T09:59:03;51.57;;;29.50;;
15096;SDS011;7649;52.084;7.478;2023-02-11T10:01:35;44.73;;;27.60;;
15096;SDS011;7649;52.084;7.478;2023-02-11T10:04:10;44.20;;;27.83;;
15096;SDS011;7649;52.084;7.478;2023-02-11T10:06:42;49.87;;;27.70;;
15096;SDS011;7649;52.084;7.478;2023-02-11T10:09:17;54.67;;;29.13;;
15096;SDS011;7649;52.084;7.478;2023-02-11T10:11:50;52.33;;;29.30;;
15096;SDS011;7649;52.084;7.478;2023-02-11T10:14:24;53.83;;;30.67;;
15096;SDS011;7649;52.084;7.478;2023-02-11T10:16:59;44.73;;;29.23;;
15096;SDS011;7649;52.084;7.478;2023-02-11T10:19:37;48.33;;;30.47;;
15096;SDS011;7649;52.084;7.478;2023-02-11T10:22:09;52.10;;;29.90;;
15096;SDS011;7649;52.084;7.478;2023-02-11T10:24:39;52.63;;;29.93;;
15096;SDS011;7649;52.084;7.478;2023-02-11T10:27:11;56.70;;;30.93;;
15096;SDS011;7649;52.084;7.478;2023-02-11T10:29:43;51.83;;;30.57;;
15096;SDS011;7649;52.084;7.478;2023-02-11T10:32:14;53.07;;;30.23;;
15096;SDS011;7649;52.084;7.478;2023-02-11T10:34:50;50.27;;;30.00;;
15096;SDS011;7649;52.084;7.478;2023-02-11T10:37:19;50.30;;;30.57;;
15096;SDS011;7649;52.084;7.478;2023-02-11T10:39:47;54.20;;;30.30;;
15096;SDS011;7649;52.084;7.478;2023-02-11T10:42:16;53.60;;;31.17;;
15096;SDS011;7649;52.084;7.478;2023-02-11T10:44:47;56.07;;;31.10;;
15096;SDS011;7649;52.084;7.478;2023-02-11T10:47:19;51.37;;;31.07;;
15096;SDS011;7649;52.084;7.478;2023-02-11T10:49:50;54.00;;;31.67;;
15096;SDS011;7649;52.084;7.478;2023-02-11T10:52:20;56.97;;;30.53;;
15096;SDS011;7649;52.084;7.478;2023-02-11T10:54:59;54.03;;;30.07;;
15096;SDS011;7649;52.084;7.478;2023-02-11T10:57:29;52.90;;;30.07;;
15096;SDS011;7649;52.084;7.478;2023-02-11T10:59:58;51.17;;;29.83;;
15096;SDS011;7649;52.084;7.478;2023-02-11T11:02:28;51.03;;;31.10;;
15096;SDS011;7649;52.084;7.478;2023-02-11T11:05:02;51.00;;;30.60;;
15096;SDS011;7649;52.084;7.478;2023-02-11T11:07:31;53.10;;;31.17;;
15096;SDS011;7649;52.084;7.478;2023-02-11T11:10:01;51.67;;;30.37;;
15096;SDS011;7649;52.084;7.478;2023-02-11T11:12:31;48.93;;;30.80;;
15096;SDS011;7649;52.084;7.478;2023-02-11T11:15:01;46.07;;;30.30;;
15096;SDS011;7649;52.084;7.478;2023-02-11T11:17:30;46.70;;;30.83;;
15096;SDS011;7649;52.084;7.478;2023-02-11T11:20:18;51.77;;;30.10;;
15096;SDS011;7649;52.084;7.478;2023-02-11T11:22:47;49.27;;;30.23;;
15096;SDS011;7649;52.084;7.478;2023-02-11T11:25:19;45.23;;;29.00;;
15096;SDS011;7649;52.084;7.478;2023-02-11T11:27:48;47.13;;;30.17;;
15096;SDS011;7649;52.084;7.478;2023-02-11T11:30:16;48.43;;;29.87;;
15096;SDS011;7649;52.084;7.478;2023-02-11T11:32:45;45.77;;;30.60;;
15096;SDS011;7649;52.084;7.478;2023-02-11T11:35:22;47.63;;;29.03;;
15096;SDS011;7649;52.084;7.478;2023-02-11T11:37:51;45.80;;;29.33;;
15096;SDS011;7649;52.084;7.478;2023-02-11T11:40:21;48.93;;;30.23;;
15096;SDS011;7649;52.084;7.478;2023-02-11T11:45:23;51.50;;;30.77;;
15096;SDS011;7649;52.084;7.478;2023-02-11T11:47:52;48.33;;;30.03;;
15096;SDS011;7649;52.084;7.478;2023-02-11T11:50:26;48.33;;;29.60;;
15096;SDS011;7649;52.084;7.478;2023-02-11T11:52:56;51.67;;;30.47;;
15096;SDS011;7649;52.084;7.478;2023-02-11T11:55:27;46.23;;;30.77;;
15096;SDS011;7649;52.084;7.478;2023-02-11T11:57:58;51.10;;;30.50;;
15096;SDS011;7649;52.084;7.478;2023-02-11T12:00:27;57.77;;;31.10;;
15096;SDS011;7649;52.084;7.478;2023-02-11T12:05:44;44.97;;;29.03;;
15096;SDS011;7649;52.084;7.478;2023-02-11T12:08:15;41.20;;;28.90;;
15096;SDS011;7649;52.084;7.478;2023-02-11T12:10:54;43.73;;;29.50;;
15096;SDS011;7649;52.084;7.478;2023-02-11T12:13:28;43.57;;;29.03;;
15096;SDS011;7649;52.084;7.478;2023-02-11T12:16:02;49.33;;;29.30;;
15096;SDS011;7649;52.084;7.478;2023-02-11T12:18:39;45.20;;;30.00;;
15096;SDS011;7649;52.084;7.478;2023-02-11T12:21:21;44.70;;;28.73;;
15096;SDS011;7649;52.084;7.478;2023-02-11T12:23:54;36.37;;;27.10;;
15096;SDS011;7649;52.084;7.478;2023-02-11T12:26:28;44.33;;;28.67;;
15096;SDS011;7649;52.084;7.478;2023-02-11T12:29:01;39.03;;;27.57;;
15096;SDS011;7649;52.084;7.478;2023-02-11T12:31:41;38.90;;;27.40;;
15096;SDS011;7649;52.084;7.478;2023-02-11T12:34:22;43.40;;;27.37;;
15096;SDS011;7649;52.084;7.478;2023-02-11T12:36:58;46.33;;;28.10;;
15096;SDS011;7649;52.084;7.478;2023-02-11T12:39:33;44.67;;;27.30;;
15096;SDS011;7649;52.084;7.478;2023-02-11T12:42:09;42.67;;;28.60;;
15096;SDS011;7649;52.084;7.478;2023-02-11T12:44:58;43.27;;;27.87;;
15096;SDS011;7649;52.084;7.478;2023-02-11T12:47:29;39.10;;;26.93;;
15096;SDS011;7649;52.084;7.478;2023-02-11T12:52:57;41.10;;;27.47;;
15096;SDS011;7649;52.084;7.478;2023-02-11T12:55:28;40.27;;;26.70;;
15096;SDS011;7649;52.084;7.478;2023-02-11T12:57:57;40.90;;;26.77;;
15096;SDS011;7649;52.084;7.478;2023-02-11T13:00:26;41.93;;;27.27;;
15096;SDS011;7649;52.084;7.478;2023-02-11T13:02:58;43.80;;;27.17;;
15096;SDS011;7649;52.084;7.478;2023-02-11T13:05:30;39.27;;;26.27;;
15096;SDS011;7649;52.084;7.478;2023-02-11T13:08:04;37.83;;;25.37;;
15096;SDS011;7649;52.084;7.478;2023-02-11T13:10:37;34.67;;;24.73;;
15096;SDS011;7649;52.084;7.478;2023-02-11T13:13:10;34.77;;;26.07;;
15096;SDS011;7649;52.084;7.478;2023-02-11T13:15:46;34.83;;;24.10;;
15096;SDS011;7649;52.084;7.478;2023-02-11T13:21:00;29.80;;;22.10;;
15096;SDS011;7649;52.084;7.478;2023-02-11T13:23:36;35.03;;;23.20;;
15096;SDS011;7649;52.084;7.478;2023-02-11T13:26:07;33.40;;;22.53;;
15096;SDS011;7649;52.084;7.478;2023-02-11T13:28:39;33.57;;;23.57;;
15096;SDS011;7649;52.084;7.478;2023-02-11T13:31:09;31.87;;;22.47;;
15096;SDS011;7649;52.084;7.478;2023-02-11T13:33:41;38.50;;;24.27;;
15096;SDS011;7649;52.084;7.478;2023-02-11T13:36:12;33.70;;;23.47;;
15096;SDS011;7649;52.084;7.478;2023-02-11T13:38:49;30.87;;;23.30;;
15096;SDS011;7649;52.084;7.478;2023-02-11T13:41:19;34.33;;;24.30;;
15096;SDS011;7649;52.084;7.478;2023-02-11T13:44:01;31.83;;;22.97;;
15096;SDS011;7649;52.084;7.478;2023-02-11T13:49:16;32.97;;;21.93;;
15096;SDS011;7649;52.084;7.478;2023-02-11T13:51:45;30.87;;;21.97;;
15096;SDS011;7649;52.084;7.478;2023-02-11T13:54:20;28.83;;;21.30;;
15096;SDS011;7649;52.084;7.478;2023-02-11T13:59:45;28.80;;;21.00;;
15096;SDS011;7649;52.084;7.478;2023-02-11T14:02:21;30.20;;;21.53;;
15096;SDS011;7649;52.084;7.478;2023-02-11T14:08:16;27.20;;;20.20;;
15096;SDS011;7649;52.084;7.478;2023-02-11T14:11:06;27.23;;;19.67;;
15096;SDS011;7649;52.084;7.478;2023-02-11T14:13:36;28.73;;;20.27;;
15096;SDS011;7649;52.084;7.478;2023-02-11T14:16:24;28.27;;;20.50;;
15096;SDS011;7649;52.084;7.478;2023-02-11T14:19:03;29.90;;;19.70;;
15096;SDS011;7649;52.084;7.478;2023-02-11T14:21:33;26.73;;;20.87;;
15096;SDS011;7649;52.084;7.478;2023-02-11T14:26:51;25.87;;;20.83;;
15096;SDS011;7649;52.084;7.478;2023-02-11T14:29:23;28.07;;;20.27;;
15096;SDS011;7649;52.084;7.478;2023-02-11T14:31:53;26.47;;;19.60;;
15096;SDS011;7649;52.084;7.478;2023-02-11T14:37:10;26.77;;;20.73;;
15096;SDS011;7649;52.084;7.478;2023-02-11T14:39:46;25.63;;;19.03;;
15096;SDS011;7649;52.084;7.478;2023-02-11T14:42:19;31.17;;;20.97;;
15096;SDS011;7649;52.084;7.478;2023-02-11T14:44:48;30.60;;;20.27;;
15096;SDS011;7649;52.084;7.478;2023-02-11T14:47:20;25.30;;;18.53;;
15096;SDS011;7649;52.084;7.478;2023-02-11T14:49:52;24.00;;;18.93;;
15096;SDS011;7649;52.084;7.478;2023-02-11T14:52:24;27.37;;;19.27;;
15096;SDS011;7649;52.084;7.478;2023-02-11T14:55:05;27.97;;;17.73;;
15096;SDS011;7649;52.084;7.478;2023-02-11T14:57:35;23.73;;;18.83;;
15096;SDS011;7649;52.084;7.478;2023-02-11T15:00:05;25.87;;;18.17;;
15096;SDS011;7649;52.084;7.478;2023-02-11T15:02:41;26.30;;;18.90;;
15096;SDS011;7649;52.084;7.478;2023-02-11T15:05:18;24.87;;;18.60;;
15096;SDS011;7649;52.084;7.478;2023-02-11T15:07:47;22.27;;;18.20;;
15096;SDS011;7649;52.084;7.478;2023-02-11T15:10:20;27.43;;;18.67;;
15096;SDS011;7649;52.084;7.478;2023-02-11T15:12:51;25.40;;;18.23;;
15096;SDS011;7649;52.084;7.478;2023-02-11T15:15:19;23.20;;;18.13;;
15096;SDS011;7649;52.084;7.478;2023-02-11T15:17:48;24.60;;;18.73;;
15096;SDS011;7649;52.084;7.478;2023-02-11T15:20:18;24.57;;;19.13;;
15096;SDS011;7649;52.084;7.478;2023-02-11T15:22:47;22.57;;;18.17;;